sensor_id;sensor_type;location;lat;lon;timestamp;temperature;humidity
40638;DHT22;26336;44.696;10.622;2023-02-15T00:02:35;6.80;99.90
40638;DHT22;26336;44.696;10.622;2023-02-15T00:05:39;6.80;99.90
40638;DHT22;26336;44.696;10.622;2023-02-15T00:08:43;6.80;99.90
40638;DHT22;26336;44.696;10.622;2023-02-15T00:11:49;6.80;99.90
40638;DHT22;26336;44.696;10.622;2023-02-15T00:14:53;6.70;99.90
40638;DHT22;26336;44.696;10.622;2023-02-15T00:17:57;6.70;99.90
40638;DHT22;26336;44.696;10.622;2023-02-15T00:21:06;6.70;99.90
40638;DHT22;26336;44.696;10.622;2023-02-15T00:24:12;6.70;99.90
40638;DHT22;26336;44.696;10.622;2023-02-15T00:27:16;6.60;99.90
40638;DHT22;26336;44.696;10.622;2023-02-15T00:30:20;6.60;99.90
40638;DHT22;26336;44.696;10.622;2023-02-15T00:33:24;6.60;99.90
40638;DHT22;26336;44.696;10.622;2023-02-15T00:36:29;6.50;99.90
40638;DHT22;26336;44.696;10.622;2023-02-15T00:39:36;6.50;99.90
40638;DHT22;26336;44.696;10.622;2023-02-15T00:42:40;6.50;99.90
40638;DHT22;26336;44.696;10.622;2023-02-15T00:45:46;6.50;99.90
40638;DHT22;26336;44.696;10.622;2023-02-15T00:48:50;6.50;99.90
40638;DHT22;26336;44.696;10.622;2023-02-15T00:51:53;6.50;99.90
40638;DHT22;26336;44.696;10.622;2023-02-15T00:54:57;6.50;99.90
40638;DHT22;26336;44.696;10.622;2023-02-15T00:58:01;6.50;99.90
40638;DHT22;26336;44.696;10.622;2023-02-15T01:01:07;6.50;99.90
40638;DHT22;26336;44.696;10.622;2023-02-15T01:04:12;6.50;99.90
40638;DHT22;26336;44.696;10.622;2023-02-15T01:07:16;6.50;99.90
40638;DHT22;26336;44.696;10.622;2023-02-15T01:10:20;6.50;99.90
40638;DHT22;26336;44.696;10.622;2023-02-15T01:13:24;6.50;99.90
40638;DHT22;26336;44.696;10.622;2023-02-15T01:16:28;6.40;99.90
40638;DHT22;26336;44.696;10.622;2023-02-15T01:19:32;6.40;99.90
40638;DHT22;26336;44.696;10.622;2023-02-15T01:22:37;6.40;99.90
40638;DHT22;26336;44.696;10.622;2023-02-15T01:26:01;6.30;99.90
40638;DHT22;26336;44.696;10.622;2023-02-15T01:29:05;6.30;99.90
40638;DHT22;26336;44.696;10.622;2023-02-15T01:32:09;6.30;99.90
40638;DHT22;26336;44.696;10.622;2023-02-15T01:35:13;6.30;99.90
40638;DHT22;26336;44.696;10.622;2023-02-15T01:38:17;6.20;99.90
40638;DHT22;26336;44.696;10.622;2023-02-15T01:41:21;6.20;99.90
40638;DHT22;26336;44.696;10.622;2023-02-15T01:45:14;6.20;99.90
40638;DHT22;26336;44.696;10.622;2023-02-15T01:48:24;6.20;99.90
40638;DHT22;26336;44.696;10.622;2023-02-15T01:51:36;6.20;99.90
40638;DHT22;26336;44.696;10.622;2023-02-15T01:54:44;6.20;99.90
40638;DHT22;26336;44.696;10.622;2023-02-15T01:57:49;6.20;99.90
40638;DHT22;26336;44.696;10.622;2023-02-15T02:00:59;6.20;99.90
40638;DHT22;26336;44.696;10.622;2023-02-15T02:04:26;6.20;99.90
40638;DHT22;26336;44.696;10.622;2023-02-15T02:07:42;6.10;99.90
40638;DHT22;26336;44.696;10.622;2023-02-15T02:10:47;6.10;99.90
40638;DHT22;26336;44.696;10.622;2023-02-15T02:13:54;6.10;99.90
40638;DHT22;26336;44.696;10.622;2023-02-15T02:17:09;6.10;99.90
40638;DHT22;26336;44.696;10.622;2023-02-15T02:24:02;6.00;99.90
40638;DHT22;26336;44.696;10.622;2023-02-15T02:31:14;6.00;99.90
40638;DHT22;26336;44.696;10.622;2023-02-15T02:34:29;5.90;99.90
40638;DHT22;26336;44.696;10.622;2023-02-15T02:44:12;5.90;99.90
40638;DHT22;26336;44.696;10.622;2023-02-15T02:50:27;5.80;99.90
40638;DHT22;26336;44.696;10.622;2023-02-15T02:53:33;5.80;99.90
40638;DHT22;26336;44.696;10.622;2023-02-15T02:56:41;5.80;99.90
40638;DHT22;26336;44.696;10.622;2023-02-15T02:59:46;5.80;99.90
40638;DHT22;26336;44.696;10.622;2023-02-15T03:02:56;5.70;99.90
40638;DHT22;26336;44.696;10.622;2023-02-15T03:06:11;5.70;99.90
40638;DHT22;26336;44.696;10.622;2023-02-15T03:09:41;5.70;99.90
40638;DHT22;26336;44.696;10.622;2023-02-15T03:12:48;5.70;99.90
40638;DHT22;26336;44.696;10.622;2023-02-15T03:15:52;5.70;99.90
40638;DHT22;26336;44.696;10.622;2023-02-15T03:19:17;5.60;99.90
40638;DHT22;26336;44.696;10.622;2023-02-15T03:22:28;5.60;99.90
40638;DHT22;26336;44.696;10.622;2023-02-15T03:25:36;5.60;99.90
40638;DHT22;26336;44.696;10.622;2023-02-15T03:28:47;5.60;99.90
40638;DHT22;26336;44.696;10.622;2023-02-15T03:31:59;5.60;99.90
40638;DHT22;26336;44.696;10.622;2023-02-15T03:35:04;5.50;99.90
40638;DHT22;26336;44.696;10.622;2023-02-15T03:38:10;5.50;99.90
40638;DHT22;26336;44.696;10.622;2023-02-15T03:41:19;5.50;99.90
40638;DHT22;26336;44.696;10.622;2023-02-15T03:47:34;5.50;99.90
40638;DHT22;26336;44.696;10.622;2023-02-15T03:50:40;5.40;99.90
40638;DHT22;26336;44.696;10.622;2023-02-15T03:54:09;5.50;99.90
40638;DHT22;26336;44.696;10.622;2023-02-15T03:57:23;5.40;99.90
40638;DHT22;26336;44.696;10.622;2023-02-15T04:00:59;5.40;99.90
40638;DHT22;26336;44.696;10.622;2023-02-15T04:04:25;5.40;99.90
40638;DHT22;26336;44.696;10.622;2023-02-15T04:07:30;5.40;99.90
40638;DHT22;26336;44.696;10.622;2023-02-15T04:10:35;5.30;99.90
40638;DHT22;26336;44.696;10.622;2023-02-15T04:13:58;5.30;99.90
40638;DHT22;26336;44.696;10.622;2023-02-15T04:17:06;5.30;99.90
40638;DHT22;26336;44.696;10.622;2023-02-15T04:20:10;5.30;99.90
40638;DHT22;26336;44.696;10.622;2023-02-15T04:23:32;5.30;99.90
40638;DHT22;26336;44.696;10.622;2023-02-15T04:26:55;5.30;99.90
40638;DHT22;26336;44.696;10.622;2023-02-15T04:29:59;5.20;99.90
40638;DHT22;26336;44.696;10.622;2023-02-15T04:33:04;5.30;99.90
40638;DHT22;26336;44.696;10.622;2023-02-15T04:36:07;5.20;99.90
40638;DHT22;26336;44.696;10.622;2023-02-15T04:39:13;5.20;99.90
40638;DHT22;26336;44.696;10.622;2023-02-15T04:42:17;5.20;99.90
40638;DHT22;26336;44.696;10.622;2023-02-15T04:45:21;5.20;99.90
40638;DHT22;26336;44.696;10.622;2023-02-15T04:48:26;5.20;99.90
40638;DHT22;26336;44.696;10.622;2023-02-15T04:51:30;5.10;99.90
40638;DHT22;26336;44.696;10.622;2023-02-15T04:54:34;5.00;99.90
40638;DHT22;26336;44.696;10.622;2023-02-15T04:57:38;5.00;99.90
40638;DHT22;26336;44.696;10.622;2023-02-15T05:00:42;5.00;99.90
40638;DHT22;26336;44.696;10.622;2023-02-15T05:03:46;5.00;99.90
40638;DHT22;26336;44.696;10.622;2023-02-15T05:06:50;4.90;99.90
40638;DHT22;26336;44.696;10.622;2023-02-15T05:09:54;5.00;99.90
40638;DHT22;26336;44.696;10.622;2023-02-15T05:12:58;4.90;99.90
40638;DHT22;26336;44.696;10.622;2023-02-15T05:16:04;5.00;99.90
40638;DHT22;26336;44.696;10.622;2023-02-15T05:19:08;5.00;99.90
40638;DHT22;26336;44.696;10.622;2023-02-15T05:22:12;5.00;99.90
40638;DHT22;26336;44.696;10.622;2023-02-15T05:25:16;5.00;99.90
40638;DHT22;26336;44.696;10.622;2023-02-15T05:28:39;4.90;99.90
40638;DHT22;26336;44.696;10.622;2023-02-15T05:31:43;4.90;99.90
40638;DHT22;26336;44.696;10.622;2023-02-15T05:34:50;4.80;99.90
40638;DHT22;26336;44.696;10.622;2023-02-15T05:37:54;4.80;99.90
40638;DHT22;26336;44.696;10.622;2023-02-15T05:40:58;4.80;99.90
40638;DHT22;26336;44.696;10.622;2023-02-15T05:44:02;4.80;99.90
40638;DHT22;26336;44.696;10.622;2023-02-15T05:47:06;4.70;99.90
40638;DHT22;26336;44.696;10.622;2023-02-15T05:50:11;4.70;99.90
40638;DHT22;26336;44.696;10.622;2023-02-15T05:53:15;4.70;99.90
40638;DHT22;26336;44.696;10.622;2023-02-15T05:56:18;4.60;99.90
40638;DHT22;26336;44.696;10.622;2023-02-15T05:59:22;4.60;99.90
40638;DHT22;26336;44.696;10.622;2023-02-15T06:02:26;4.50;99.90
40638;DHT22;26336;44.696;10.622;2023-02-15T06:05:30;4.50;99.90
40638;DHT22;26336;44.696;10.622;2023-02-15T06:08:35;4.50;99.90
40638;DHT22;26336;44.696;10.622;2023-02-15T06:11:40;4.40;99.90
40638;DHT22;26336;44.696;10.622;2023-02-15T06:14:45;4.50;99.90
40638;DHT22;26336;44.696;10.622;2023-02-15T06:17:48;4.50;99.90
40638;DHT22;26336;44.696;10.622;2023-02-15T06:20:53;4.60;99.90
40638;DHT22;26336;44.696;10.622;2023-02-15T06:23:57;4.50;99.90
40638;DHT22;26336;44.696;10.622;2023-02-15T06:27:01;4.50;99.90
40638;DHT22;26336;44.696;10.622;2023-02-15T06:30:05;4.50;99.90
40638;DHT22;26336;44.696;10.622;2023-02-15T06:33:09;4.50;99.90
40638;DHT22;26336;44.696;10.622;2023-02-15T06:36:14;4.50;99.90
40638;DHT22;26336;44.696;10.622;2023-02-15T06:39:18;4.50;99.90
40638;DHT22;26336;44.696;10.622;2023-02-15T06:42:22;4.60;99.90
40638;DHT22;26336;44.696;10.622;2023-02-15T06:45:26;4.60;99.90
40638;DHT22;26336;44.696;10.622;2023-02-15T06:48:30;4.50;99.90
40638;DHT22;26336;44.696;10.622;2023-02-15T06:51:34;4.50;99.90
40638;DHT22;26336;44.696;10.622;2023-02-15T06:54:41;4.50;99.90
40638;DHT22;26336;44.696;10.622;2023-02-15T06:57:45;4.60;99.90
40638;DHT22;26336;44.696;10.622;2023-02-15T07:00:48;4.50;99.90
40638;DHT22;26336;44.696;10.622;2023-02-15T07:03:52;4.50;99.90
40638;DHT22;26336;44.696;10.622;2023-02-15T07:06:56;4.50;99.90
40638;DHT22;26336;44.696;10.622;2023-02-15T07:10:00;4.60;99.90
40638;DHT22;26336;44.696;10.622;2023-02-15T07:13:04;4.60;99.90
40638;DHT22;26336;44.696;10.622;2023-02-15T07:16:09;4.70;99.90
40638;DHT22;26336;44.696;10.622;2023-02-15T07:19:16;4.70;99.90
40638;DHT22;26336;44.696;10.622;2023-02-15T07:22:19;4.70;99.90
40638;DHT22;26336;44.696;10.622;2023-02-15T07:25:25;4.70;99.90
40638;DHT22;26336;44.696;10.622;2023-02-15T07:28:34;4.80;99.90
40638;DHT22;26336;44.696;10.622;2023-02-15T07:31:37;4.90;99.90
40638;DHT22;26336;44.696;10.622;2023-02-15T07:34:41;4.90;99.90
40638;DHT22;26336;44.696;10.622;2023-02-15T07:37:48;4.90;99.90
40638;DHT22;26336;44.696;10.622;2023-02-15T07:40:57;5.00;99.90
40638;DHT22;26336;44.696;10.622;2023-02-15T07:44:01;5.00;99.90
40638;DHT22;26336;44.696;10.622;2023-02-15T07:47:05;5.10;99.90
40638;DHT22;26336;44.696;10.622;2023-02-15T07:50:09;5.20;99.90
40638;DHT22;26336;44.696;10.622;2023-02-15T07:53:13;5.30;99.90
40638;DHT22;26336;44.696;10.622;2023-02-15T07:56:20;5.40;99.90
40638;DHT22;26336;44.696;10.622;2023-02-15T07:59:26;5.40;99.90
40638;DHT22;26336;44.696;10.622;2023-02-15T08:02:31;5.60;99.90
40638;DHT22;26336;44.696;10.622;2023-02-15T08:05:35;5.70;99.90
40638;DHT22;26336;44.696;10.622;2023-02-15T08:08:39;5.80;99.90
40638;DHT22;26336;44.696;10.622;2023-02-15T08:11:47;6.00;99.90
40638;DHT22;26336;44.696;10.622;2023-02-15T08:14:51;6.10;99.90
40638;DHT22;26336;44.696;10.622;2023-02-15T08:17:57;6.30;99.90
40638;DHT22;26336;44.696;10.622;2023-02-15T08:21:01;6.40;99.90
40638;DHT22;26336;44.696;10.622;2023-02-15T08:24:08;6.50;99.90
40638;DHT22;26336;44.696;10.622;2023-02-15T08:27:12;6.60;99.90
40638;DHT22;26336;44.696;10.622;2023-02-15T08:30:16;6.80;99.90
40638;DHT22;26336;44.696;10.622;2023-02-15T08:33:20;7.00;99.90
40638;DHT22;26336;44.696;10.622;2023-02-15T08:36:27;7.10;99.90
40638;DHT22;26336;44.696;10.622;2023-02-15T08:39:32;7.30;99.90
40638;DHT22;26336;44.696;10.622;2023-02-15T08:42:36;7.60;99.90
40638;DHT22;26336;44.696;10.622;2023-02-15T08:45:40;7.80;99.90
40638;DHT22;26336;44.696;10.622;2023-02-15T08:48:45;8.00;99.40
40638;DHT22;26336;44.696;10.622;2023-02-15T08:51:50;8.20;99.10
40638;DHT22;26336;44.696;10.622;2023-02-15T08:54:53;8.30;98.30
40638;DHT22;26336;44.696;10.622;2023-02-15T08:57:58;8.50;98.00
40638;DHT22;26336;44.696;10.622;2023-02-15T09:01:13;8.70;97.30
40638;DHT22;26336;44.696;10.622;2023-02-15T09:04:21;8.80;96.90
40638;DHT22;26336;44.696;10.622;2023-02-15T09:07:26;8.90;96.80
40638;DHT22;26336;44.696;10.622;2023-02-15T09:10:30;9.00;97.00
40638;DHT22;26336;44.696;10.622;2023-02-15T09:13:34;9.10;97.00
40638;DHT22;26336;44.696;10.622;2023-02-15T09:16:39;9.20;97.00
40638;DHT22;26336;44.696;10.622;2023-02-15T09:19:43;9.30;96.90
40638;DHT22;26336;44.696;10.622;2023-02-15T09:22:47;9.40;96.80
40638;DHT22;26336;44.696;10.622;2023-02-15T09:25:51;9.40;96.50
40638;DHT22;26336;44.696;10.622;2023-02-15T09:28:57;9.50;96.60
40638;DHT22;26336;44.696;10.622;2023-02-15T09:32:03;9.50;96.50
40638;DHT22;26336;44.696;10.622;2023-02-15T09:35:07;9.60;96.50
40638;DHT22;26336;44.696;10.622;2023-02-15T09:38:11;9.70;96.50
40638;DHT22;26336;44.696;10.622;2023-02-15T09:48:41;9.90;96.70
40638;DHT22;26336;44.696;10.622;2023-02-15T10:01:58;10.20;97.00
40638;DHT22;26336;44.696;10.622;2023-02-15T10:05:32;10.30;97.10
40638;DHT22;26336;44.696;10.622;2023-02-15T10:22:18;10.70;97.00
40638;DHT22;26336;44.696;10.622;2023-02-15T10:28:51;10.80;96.70
40638;DHT22;26336;44.696;10.622;2023-02-15T10:32:05;10.90;96.50
40638;DHT22;26336;44.696;10.622;2023-02-15T10:35:19;11.00;96.50
40638;DHT22;26336;44.696;10.622;2023-02-15T10:38:44;11.10;96.50
40638;DHT22;26336;44.696;10.622;2023-02-15T11:06:09;11.60;96.20
40638;DHT22;26336;44.696;10.622;2023-02-15T11:09:20;11.70;95.90
40638;DHT22;26336;44.696;10.622;2023-02-15T11:12:28;11.80;95.50
40638;DHT22;26336;44.696;10.622;2023-02-15T11:19:15;11.90;95.30
40638;DHT22;26336;44.696;10.622;2023-02-15T11:22:22;12.00;95.40
40638;DHT22;26336;44.696;10.622;2023-02-15T11:25:35;12.10;94.90
40638;DHT22;26336;44.696;10.622;2023-02-15T11:31:57;12.20;94.70
40638;DHT22;26336;44.696;10.622;2023-02-15T11:38:23;12.30;94.50
40638;DHT22;26336;44.696;10.622;2023-02-15T11:41:33;12.30;94.50
40638;DHT22;26336;44.696;10.622;2023-02-15T11:45:04;12.40;94.60
40638;DHT22;26336;44.696;10.622;2023-02-15T11:48:15;12.40;94.80
40638;DHT22;26336;44.696;10.622;2023-02-15T11:51:22;12.50;94.10
40638;DHT22;26336;44.696;10.622;2023-02-15T11:54:31;12.50;94.00
40638;DHT22;26336;44.696;10.622;2023-02-15T11:57:39;12.60;94.20
40638;DHT22;26336;44.696;10.622;2023-02-15T12:00:50;12.60;93.90
40638;DHT22;26336;44.696;10.622;2023-02-15T12:04:21;12.60;93.80
40638;DHT22;26336;44.696;10.622;2023-02-15T12:07:36;12.70;93.20
40638;DHT22;26336;44.696;10.622;2023-02-15T12:10:57;12.70;93.30
40638;DHT22;26336;44.696;10.622;2023-02-15T12:17:13;12.80;93.90
40638;DHT22;26336;44.696;10.622;2023-02-15T12:23:27;12.80;93.90
40638;DHT22;26336;44.696;10.622;2023-02-15T12:26:35;12.90;93.40
40638;DHT22;26336;44.696;10.622;2023-02-15T12:29:49;12.90;93.50
40638;DHT22;26336;44.696;10.622;2023-02-15T12:32:57;12.90;93.60
40638;DHT22;26336;44.696;10.622;2023-02-15T12:36:11;12.90;93.90
40638;DHT22;26336;44.696;10.622;2023-02-15T12:39:20;13.00;93.80
40638;DHT22;26336;44.696;10.622;2023-02-15T12:42:27;13.10;93.60
40638;DHT22;26336;44.696;10.622;2023-02-15T12:45:35;13.10;93.80
40638;DHT22;26336;44.696;10.622;2023-02-15T12:48:39;13.20;93.90
40638;DHT22;26336;44.696;10.622;2023-02-15T12:51:51;13.20;93.60
40638;DHT22;26336;44.696;10.622;2023-02-15T12:55:30;13.10;93.50
40638;DHT22;26336;44.696;10.622;2023-02-15T12:58:37;13.20;93.20
40638;DHT22;26336;44.696;10.622;2023-02-15T13:01:42;13.20;92.70
40638;DHT22;26336;44.696;10.622;2023-02-15T13:04:50;13.20;92.60
40638;DHT22;26336;44.696;10.622;2023-02-15T13:08:46;13.20;92.50
40638;DHT22;26336;44.696;10.622;2023-02-15T13:11:29;13.20;92.50
40638;DHT22;26336;44.696;10.622;2023-02-15T13:14:44;13.30;92.30
40638;DHT22;26336;44.696;10.622;2023-02-15T13:17:49;13.30;92.00
40638;DHT22;26336;44.696;10.622;2023-02-15T13:20:56;13.30;92.10
40638;DHT22;26336;44.696;10.622;2023-02-15T13:24:10;13.30;92.10
40638;DHT22;26336;44.696;10.622;2023-02-15T13:27:22;13.40;91.80
40638;DHT22;26336;44.696;10.622;2023-02-15T13:30:31;13.40;91.80
40638;DHT22;26336;44.696;10.622;2023-02-15T13:33:54;13.50;91.70
40638;DHT22;26336;44.696;10.622;2023-02-15T13:40:37;13.90;91.20
40638;DHT22;26336;44.696;10.622;2023-02-15T13:43:58;13.90;91.30
40638;DHT22;26336;44.696;10.622;2023-02-15T13:47:13;13.90;91.30
40638;DHT22;26336;44.696;10.622;2023-02-15T14:10:20;13.70;91.00
40638;DHT22;26336;44.696;10.622;2023-02-15T14:30:33;13.90;91.50
40638;DHT22;26336;44.696;10.622;2023-02-15T14:33:40;13.90;91.70
40638;DHT22;26336;44.696;10.622;2023-02-15T14:36:47;14.00;91.60
40638;DHT22;26336;44.696;10.622;2023-02-15T14:50:38;13.90;91.70
40638;DHT22;26336;44.696;10.622;2023-02-15T14:53:43;13.90;91.70
40638;DHT22;26336;44.696;10.622;2023-02-15T15:00:33;13.80;91.90
40638;DHT22;26336;44.696;10.622;2023-02-15T15:03:48;13.80;92.10
40638;DHT22;26336;44.696;10.622;2023-02-15T15:16:46;13.90;92.50
40638;DHT22;26336;44.696;10.622;2023-02-15T15:26:27;13.90;92.20
40638;DHT22;26336;44.696;10.622;2023-02-15T15:29:41;13.90;93.00
40638;DHT22;26336;44.696;10.622;2023-02-15T15:50:18;13.80;92.80
40638;DHT22;26336;44.696;10.622;2023-02-15T15:53:25;13.70;92.90
40638;DHT22;26336;44.696;10.622;2023-02-15T15:56:33;13.60;93.00
40638;DHT22;26336;44.696;10.622;2023-02-15T15:59:44;13.50;93.30
40638;DHT22;26336;44.696;10.622;2023-02-15T16:02:53;13.50;92.70
40638;DHT22;26336;44.696;10.622;2023-02-15T16:05:57;13.60;92.90
40638;DHT22;26336;44.696;10.622;2023-02-15T16:09:18;13.60;92.70
40638;DHT22;26336;44.696;10.622;2023-02-15T16:12:28;13.50;94.20
40638;DHT22;26336;44.696;10.622;2023-02-15T16:15:56;13.40;94.30
40638;DHT22;26336;44.696;10.622;2023-02-15T16:19:00;13.30;94.50
40638;DHT22;26336;44.696;10.622;2023-02-15T16:22:16;13.20;94.30
40638;DHT22;26336;44.696;10.622;2023-02-15T16:28:33;13.00;96.10
40638;DHT22;26336;44.696;10.622;2023-02-15T16:31:37;13.00;96.40
40638;DHT22;26336;44.696;10.622;2023-02-15T16:34:57;12.90;96.70
40638;DHT22;26336;44.696;10.622;2023-02-15T16:38:02;12.80;97.10
40638;DHT22;26336;44.696;10.622;2023-02-15T16:41:06;12.70;97.00
40638;DHT22;26336;44.696;10.622;2023-02-15T16:44:20;12.60;97.10
40638;DHT22;26336;44.696;10.622;2023-02-15T16:47:27;12.60;97.40
40638;DHT22;26336;44.696;10.622;2023-02-15T16:50:35;12.50;97.70
40638;DHT22;26336;44.696;10.622;2023-02-15T16:53:40;12.40;97.90
40638;DHT22;26336;44.696;10.622;2023-02-15T16:56:50;12.40;97.60
40638;DHT22;26336;44.696;10.622;2023-02-15T16:59:57;12.30;98.00
40638;DHT22;26336;44.696;10.622;2023-02-15T17:06:24;12.10;97.90
40638;DHT22;26336;44.696;10.622;2023-02-15T17:09:29;12.10;98.60
40638;DHT22;26336;44.696;10.622;2023-02-15T17:22:30;11.90;99.00
40638;DHT22;26336;44.696;10.622;2023-02-15T17:25:39;11.90;98.90
40638;DHT22;26336;44.696;10.622;2023-02-15T17:28:49;11.80;98.80
40638;DHT22;26336;44.696;10.622;2023-02-15T17:32:00;11.70;98.60
40638;DHT22;26336;44.696;10.622;2023-02-15T17:35:20;11.70;99.10
40638;DHT22;26336;44.696;10.622;2023-02-15T17:38:27;11.70;99.00
40638;DHT22;26336;44.696;10.622;2023-02-15T17:41:33;11.60;99.00
40638;DHT22;26336;44.696;10.622;2023-02-15T17:44:38;11.60;99.00
40638;DHT22;26336;44.696;10.622;2023-02-15T17:47:42;11.60;99.20
40638;DHT22;26336;44.696;10.622;2023-02-15T17:50:46;11.50;99.30
40638;DHT22;26336;44.696;10.622;2023-02-15T17:53:51;11.50;99.30
40638;DHT22;26336;44.696;10.622;2023-02-15T17:57:15;11.40;99.30
40638;DHT22;26336;44.696;10.622;2023-02-15T18:00:19;11.40;99.40
40638;DHT22;26336;44.696;10.622;2023-02-15T18:03:49;11.40;99.30
40638;DHT22;26336;44.696;10.622;2023-02-15T18:07:15;11.30;99.20
40638;DHT22;26336;44.696;10.622;2023-02-15T18:10:39;11.20;99.10
40638;DHT22;26336;44.696;10.622;2023-02-15T18:14:02;11.20;99.20
40638;DHT22;26336;44.696;10.622;2023-02-15T18:17:13;11.10;99.40
40638;DHT22;26336;44.696;10.622;2023-02-15T18:20:21;11.10;99.40
40638;DHT22;26336;44.696;10.622;2023-02-15T18:23:27;11.10;99.60
40638;DHT22;26336;44.696;10.622;2023-02-15T18:26:31;11.00;99.50
40638;DHT22;26336;44.696;10.622;2023-02-15T18:29:35;11.00;99.60
40638;DHT22;26336;44.696;10.622;2023-02-15T18:32:39;10.90;99.80
40638;DHT22;26336;44.696;10.622;2023-02-15T18:35:44;10.90;99.80
40638;DHT22;26336;44.696;10.622;2023-02-15T18:38:48;10.90;99.70
40638;DHT22;26336;44.696;10.622;2023-02-15T18:41:53;10.80;99.90
40638;DHT22;26336;44.696;10.622;2023-02-15T18:44:58;10.80;99.90
40638;DHT22;26336;44.696;10.622;2023-02-15T18:48:03;10.70;99.90
40638;DHT22;26336;44.696;10.622;2023-02-15T18:51:20;10.70;99.90
40638;DHT22;26336;44.696;10.622;2023-02-15T18:54:24;10.70;99.90
40638;DHT22;26336;44.696;10.622;2023-02-15T18:57:31;10.70;99.90
40638;DHT22;26336;44.696;10.622;2023-02-15T19:00:35;10.60;99.90
40638;DHT22;26336;44.696;10.622;2023-02-15T19:03:39;10.60;99.90
40638;DHT22;26336;44.696;10.622;2023-02-15T19:06:45;10.50;99.90
40638;DHT22;26336;44.696;10.622;2023-02-15T19:09:53;10.50;99.90
40638;DHT22;26336;44.696;10.622;2023-02-15T19:13:01;10.40;99.90
40638;DHT22;26336;44.696;10.622;2023-02-15T19:16:32;10.30;99.90
40638;DHT22;26336;44.696;10.622;2023-02-15T19:19:37;10.30;99.90
40638;DHT22;26336;44.696;10.622;2023-02-15T19:22:41;10.30;99.90
40638;DHT22;26336;44.696;10.622;2023-02-15T19:25:46;10.20;99.90
40638;DHT22;26336;44.696;10.622;2023-02-15T19:28:51;10.20;99.90
40638;DHT22;26336;44.696;10.622;2023-02-15T19:31:55;10.10;99.90
40638;DHT22;26336;44.696;10.622;2023-02-15T19:35:00;10.10;99.90
40638;DHT22;26336;44.696;10.622;2023-02-15T19:38:06;10.10;99.90
40638;DHT22;26336;44.696;10.622;2023-02-15T19:41:26;10.00;99.90
40638;DHT22;26336;44.696;10.622;2023-02-15T19:44:31;10.00;99.90
40638;DHT22;26336;44.696;10.622;2023-02-15T19:47:36;10.00;99.90
40638;DHT22;26336;44.696;10.622;2023-02-15T19:50:42;9.90;99.90
40638;DHT22;26336;44.696;10.622;2023-02-15T19:53:48;9.80;99.90
40638;DHT22;26336;44.696;10.622;2023-02-15T19:56:54;9.90;99.90
40638;DHT22;26336;44.696;10.622;2023-02-15T19:59:58;9.80;99.90
40638;DHT22;26336;44.696;10.622;2023-02-15T20:03:08;9.70;99.90
40638;DHT22;26336;44.696;10.622;2023-02-15T20:06:15;9.60;99.90
40638;DHT22;26336;44.696;10.622;2023-02-15T20:09:25;9.70;99.90
40638;DHT22;26336;44.696;10.622;2023-02-15T20:12:30;9.60;99.90
40638;DHT22;26336;44.696;10.622;2023-02-15T20:15:34;9.50;99.90
40638;DHT22;26336;44.696;10.622;2023-02-15T20:18:39;9.50;99.80
40638;DHT22;26336;44.696;10.622;2023-02-15T20:21:47;9.50;99.90
40638;DHT22;26336;44.696;10.622;2023-02-15T20:24:55;9.40;99.90
40638;DHT22;26336;44.696;10.622;2023-02-15T20:28:02;9.40;99.90
40638;DHT22;26336;44.696;10.622;2023-02-15T20:31:14;9.20;99.90
40638;DHT22;26336;44.696;10.622;2023-02-15T20:34:20;9.20;99.90
40638;DHT22;26336;44.696;10.622;2023-02-15T20:37:26;9.20;99.90
40638;DHT22;26336;44.696;10.622;2023-02-15T20:40:34;9.20;99.90
40638;DHT22;26336;44.696;10.622;2023-02-15T20:43:41;9.10;99.90
40638;DHT22;26336;44.696;10.622;2023-02-15T20:46:45;9.20;99.90
40638;DHT22;26336;44.696;10.622;2023-02-15T20:49:49;9.10;99.90
40638;DHT22;26336;44.696;10.622;2023-02-15T20:52:55;9.10;99.90
40638;DHT22;26336;44.696;10.622;2023-02-15T20:56:02;9.10;99.90
40638;DHT22;26336;44.696;10.622;2023-02-15T20:59:33;9.10;99.90
40638;DHT22;26336;44.696;10.622;2023-02-15T21:02:37;9.00;99.90
40638;DHT22;26336;44.696;10.622;2023-02-15T21:05:42;9.00;99.90
40638;DHT22;26336;44.696;10.622;2023-02-15T21:08:50;8.90;99.90
40638;DHT22;26336;44.696;10.622;2023-02-15T21:11:58;8.90;99.90
40638;DHT22;26336;44.696;10.622;2023-02-15T21:15:29;8.90;99.90
40638;DHT22;26336;44.696;10.622;2023-02-15T21:18:34;8.80;99.90
40638;DHT22;26336;44.696;10.622;2023-02-15T21:21:41;8.80;99.90
40638;DHT22;26336;44.696;10.622;2023-02-15T21:24:51;8.70;99.90
40638;DHT22;26336;44.696;10.622;2023-02-15T21:27:57;8.70;99.90
40638;DHT22;26336;44.696;10.622;2023-02-15T21:31:02;8.70;99.90
40638;DHT22;26336;44.696;10.622;2023-02-15T21:34:06;8.60;99.90
40638;DHT22;26336;44.696;10.622;2023-02-15T21:37:30;8.60;99.90
40638;DHT22;26336;44.696;10.622;2023-02-15T21:40:35;8.50;99.90
40638;DHT22;26336;44.696;10.622;2023-02-15T21:43:39;8.50;99.90
40638;DHT22;26336;44.696;10.622;2023-02-15T21:47:01;8.50;99.90
40638;DHT22;26336;44.696;10.622;2023-02-15T21:50:24;8.50;99.90
40638;DHT22;26336;44.696;10.622;2023-02-15T21:53:47;8.50;99.90
40638;DHT22;26336;44.696;10.622;2023-02-15T21:56:51;8.40;99.90
40638;DHT22;26336;44.696;10.622;2023-02-15T21:59:57;8.40;99.90
40638;DHT22;26336;44.696;10.622;2023-02-15T22:03:01;8.30;99.90
40638;DHT22;26336;44.696;10.622;2023-02-15T22:06:05;8.30;99.90
40638;DHT22;26336;44.696;10.622;2023-02-15T22:09:18;8.30;99.90
40638;DHT22;26336;44.696;10.622;2023-02-15T22:12:22;8.30;99.90
40638;DHT22;26336;44.696;10.622;2023-02-15T22:15:30;8.30;99.90
40638;DHT22;26336;44.696;10.622;2023-02-15T22:18:35;8.20;99.90
40638;DHT22;26336;44.696;10.622;2023-02-15T22:21:39;8.20;99.90
40638;DHT22;26336;44.696;10.622;2023-02-15T22:24:43;8.20;99.90
40638;DHT22;26336;44.696;10.622;2023-02-15T22:27:47;8.20;99.90
40638;DHT22;26336;44.696;10.622;2023-02-15T22:30:52;8.10;99.90
40638;DHT22;26336;44.696;10.622;2023-02-15T22:33:56;8.10;99.90
40638;DHT22;26336;44.696;10.622;2023-02-15T22:37:00;8.00;99.90
40638;DHT22;26336;44.696;10.622;2023-02-15T22:40:05;8.00;99.90
40638;DHT22;26336;44.696;10.622;2023-02-15T22:46:59;8.00;99.90
40638;DHT22;26336;44.696;10.622;2023-02-15T22:50:32;7.90;99.90
40638;DHT22;26336;44.696;10.622;2023-02-15T22:53:36;7.90;99.90
40638;DHT22;26336;44.696;10.622;2023-02-15T22:56:48;7.90;99.90
40638;DHT22;26336;44.696;10.622;2023-02-15T22:59:52;7.80;99.90
40638;DHT22;26336;44.696;10.622;2023-02-15T23:02:56;7.80;99.90
40638;DHT22;26336;44.696;10.622;2023-02-15T23:06:00;7.80;99.90
40638;DHT22;26336;44.696;10.622;2023-02-15T23:09:04;7.80;99.90